sensor_id;sensor_type;location;lat;lon;timestamp;pressure;altitude;pressure_sealevel;temperature;humidity
9525;BME280;15940;48.734;9.112;2023-06-19T00:00:36;96129.78;;;22.99;47.03
9525;BME280;15940;48.734;9.112;2023-06-19T00:03:04;96124.41;;;23.01;46.70
9525;BME280;15940;48.734;9.112;2023-06-19T00:05:31;96124.41;;;23.01;46.70
9525;BME280;15940;48.734;9.112;2023-06-19T00:07:58;96129.22;;;23.01;46.88
9525;BME280;15940;48.734;9.112;2023-06-19T00:10:28;96131.97;;;23.01;47.19
9525;BME280;15940;48.734;9.112;2023-06-19T00:12:55;96142.16;;;22.98;46.77
9525;BME280;15940;48.734;9.112;2023-06-19T00:15:22;96134.59;;;22.99;46.97
9525;BME280;15940;48.734;9.112;2023-06-19T00:17:50;96129.22;;;23.01;46.60
9525;BME280;15940;48.734;9.112;2023-06-19T00:20:20;96135.91;;;22.98;46.77
9525;BME280;15940;48.734;9.112;2023-06-19T00:22:47;96126.31;;;22.99;46.89
9525;BME280;15940;48.734;9.112;2023-06-19T00:25:17;96128.06;;;23.04;46.45
9525;BME280;15940;48.734;9.112;2023-06-19T00:27:45;96134.16;;;23.02;46.55
9525;BME280;15940;48.734;9.112;2023-06-19T00:30:13;96136.34;;;23.04;46.51
9525;BME280;15940;48.734;9.112;2023-06-19T00:32:42;96132.41;;;23.07;46.59
9525;BME280;15940;48.734;9.112;2023-06-19T00:35:20;96134.31;;;23.04;46.71
9525;BME280;15940;48.734;9.112;2023-06-19T00:37:47;96128.06;;;23.04;46.42
9525;BME280;15940;48.734;9.112;2023-06-19T00:40:27;96134.91;;;23.03;46.36
9525;BME280;15940;48.734;9.112;2023-06-19T00:42:57;96141.88;;;23.04;46.59
9525;BME280;15940;48.734;9.112;2023-06-19T00:45:24;96137.94;;;22.97;46.88
9525;BME280;15940;48.734;9.112;2023-06-19T00:47:52;96135.31;;;22.90;47.46
9525;BME280;15940;48.734;9.112;2023-06-19T00:50:22;96148.09;;;22.85;47.23
9525;BME280;15940;48.734;9.112;2023-06-19T00:52:53;96149.66;;;22.78;47.86
9525;BME280;15940;48.734;9.112;2023-06-19T00:55:22;96154.72;;;22.72;47.65
9525;BME280;15940;48.734;9.112;2023-06-19T00:57:54;96154.16;;;22.74;47.37
9525;BME280;15940;48.734;9.112;2023-06-19T01:00:21;96164.31;;;22.71;47.69
9525;BME280;15940;48.734;9.112;2023-06-19T01:02:48;96161.84;;;22.66;47.68
9525;BME280;15940;48.734;9.112;2023-06-19T01:05:16;96162.13;;;22.60;47.95
9525;BME280;15940;48.734;9.112;2023-06-19T01:07:52;96170.66;;;22.55;48.22
9525;BME280;15940;48.734;9.112;2023-06-19T01:10:27;96175.47;;;22.54;48.33
9525;BME280;15940;48.734;9.112;2023-06-19T01:12:58;96202.91;;;22.52;48.31
9525;BME280;15940;48.734;9.112;2023-06-19T01:15:27;96210.91;;;22.48;48.50
9525;BME280;15940;48.734;9.112;2023-06-19T01:17:58;96210.56;;;22.44;48.48
9525;BME280;15940;48.734;9.112;2023-06-19T01:20:28;96210.13;;;22.38;49.06
9525;BME280;15940;48.734;9.112;2023-06-19T01:23:07;96209.81;;;22.34;49.47
9525;BME280;15940;48.734;9.112;2023-06-19T01:25:35;96212.38;;;22.22;49.41
9525;BME280;15940;48.734;9.112;2023-06-19T01:28:03;96208.16;;;22.21;49.59
9525;BME280;15940;48.734;9.112;2023-06-19T01:30:31;96223.22;;;22.10;50.30
9525;BME280;15940;48.734;9.112;2023-06-19T01:33:08;96215.44;;;21.99;50.46
9525;BME280;15940;48.734;9.112;2023-06-19T01:35:40;96224.38;;;21.90;50.92
9525;BME280;15940;48.734;9.112;2023-06-19T01:38:21;96227.97;;;21.83;51.34
9525;BME280;15940;48.734;9.112;2023-06-19T01:40:55;96226.16;;;21.78;51.50
9525;BME280;15940;48.734;9.112;2023-06-19T01:43:23;96219.47;;;21.71;51.71
9525;BME280;15940;48.734;9.112;2023-06-19T01:45:51;96226.69;;;21.66;52.20
9525;BME280;15940;48.734;9.112;2023-06-19T01:48:19;96224.50;;;21.65;52.64
9525;BME280;15940;48.734;9.112;2023-06-19T01:50:48;96223.28;;;21.58;52.86
9525;BME280;15940;48.734;9.112;2023-06-19T01:53:15;96224.72;;;21.59;52.69
9525;BME280;15940;48.734;9.112;2023-06-19T01:55:44;96226.44;;;21.55;53.16
9525;BME280;15940;48.734;9.112;2023-06-19T01:58:11;96220.06;;;21.52;53.67
9525;BME280;15940;48.734;9.112;2023-06-19T02:00:38;96212.19;;;21.49;54.02
9525;BME280;15940;48.734;9.112;2023-06-19T02:03:05;96212.59;;;21.45;54.08
9525;BME280;15940;48.734;9.112;2023-06-19T02:05:32;96216.22;;;21.48;54.17
9525;BME280;15940;48.734;9.112;2023-06-19T02:08:00;96221.59;;;21.46;54.72
9525;BME280;15940;48.734;9.112;2023-06-19T02:10:29;96218.69;;;21.44;55.06
9525;BME280;15940;48.734;9.112;2023-06-19T02:13:03;96209.84;;;21.45;54.64
9525;BME280;15940;48.734;9.112;2023-06-19T02:15:29;96219.06;;;21.40;55.00
9525;BME280;15940;48.734;9.112;2023-06-19T02:17:56;96216.88;;;21.38;55.85
9525;BME280;15940;48.734;9.112;2023-06-19T02:20:26;96209.03;;;21.35;55.66
9525;BME280;15940;48.734;9.112;2023-06-19T02:22:55;96217.16;;;21.33;56.08
9525;BME280;15940;48.734;9.112;2023-06-19T02:25:22;96214.22;;;21.31;55.93
9525;BME280;15940;48.734;9.112;2023-06-19T02:27:49;96207.97;;;21.30;55.29
9525;BME280;15940;48.734;9.112;2023-06-19T02:30:17;96209.44;;;21.31;55.95
9525;BME280;15940;48.734;9.112;2023-06-19T02:32:45;96205.94;;;21.31;56.13
9525;BME280;15940;48.734;9.112;2023-06-19T02:35:12;96212.03;;;21.29;56.14
9525;BME280;15940;48.734;9.112;2023-06-19T02:37:41;96214.22;;;21.31;56.05
9525;BME280;15940;48.734;9.112;2023-06-19T02:40:09;96219.72;;;21.31;55.60
9525;BME280;15940;48.734;9.112;2023-06-19T02:42:37;96218.41;;;21.32;56.02
9525;BME280;15940;48.734;9.112;2023-06-19T02:45:05;96213.47;;;21.30;56.11
9525;BME280;15940;48.734;9.112;2023-06-19T02:47:33;96218.69;;;21.26;56.56
9525;BME280;15940;48.734;9.112;2023-06-19T02:50:04;96227.81;;;21.29;56.28
9525;BME280;15940;48.734;9.112;2023-06-19T02:52:34;96232.03;;;21.30;56.60
9525;BME280;15940;48.734;9.112;2023-06-19T02:55:03;96234.22;;;21.31;56.55
9525;BME280;15940;48.734;9.112;2023-06-19T02:57:32;96240.06;;;21.35;56.40
9525;BME280;15940;48.734;9.112;2023-06-19T03:00:00;96239.66;;;21.39;56.20
9525;BME280;15940;48.734;9.112;2023-06-19T03:02:27;96240.66;;;21.34;56.50
9525;BME280;15940;48.734;9.112;2023-06-19T03:04:55;96246.72;;;21.32;56.46
9525;BME280;15940;48.734;9.112;2023-06-19T03:07:23;96256.09;;;21.29;56.37
9525;BME280;15940;48.734;9.112;2023-06-19T03:09:54;96249.88;;;21.29;56.45
9525;BME280;15940;48.734;9.112;2023-06-19T03:12:21;96253.91;;;21.28;56.09
9525;BME280;15940;48.734;9.112;2023-06-19T03:14:48;96258.16;;;21.21;56.87
9525;BME280;15940;48.734;9.112;2023-06-19T03:17:15;96252.84;;;21.23;56.87
9525;BME280;15940;48.734;9.112;2023-06-19T03:19:45;96256.56;;;21.18;57.21
9525;BME280;15940;48.734;9.112;2023-06-19T03:22:17;96266.28;;;21.19;57.24
9525;BME280;15940;48.734;9.112;2023-06-19T03:24:44;96263.59;;;21.11;57.35
9525;BME280;15940;48.734;9.112;2023-06-19T03:27:11;96261.09;;;21.06;57.38
9525;BME280;15940;48.734;9.112;2023-06-19T03:29:38;96265.13;;;21.05;57.47
9525;BME280;15940;48.734;9.112;2023-06-19T03:32:06;96263.28;;;21.07;57.58
9525;BME280;15940;48.734;9.112;2023-06-19T03:34:34;96260.16;;;21.03;57.91
9525;BME280;15940;48.734;9.112;2023-06-19T03:37:01;96268.69;;;20.98;58.04
9525;BME280;15940;48.734;9.112;2023-06-19T03:39:30;96256.41;;;20.91;59.07
9525;BME280;15940;48.734;9.112;2023-06-19T03:41:57;96274.66;;;20.87;60.38
9525;BME280;15940;48.734;9.112;2023-06-19T03:44:24;96262.28;;;20.70;62.88
9525;BME280;15940;48.734;9.112;2023-06-19T03:46:51;96262.63;;;20.49;63.98
9525;BME280;15940;48.734;9.112;2023-06-19T03:49:25;96261.78;;;20.32;64.50
9525;BME280;15940;48.734;9.112;2023-06-19T03:51:52;96268.41;;;20.29;64.26
9525;BME280;15940;48.734;9.112;2023-06-19T03:54:20;96272.50;;;20.20;64.04
9525;BME280;15940;48.734;9.112;2023-06-19T03:56:48;96266.47;;;20.14;64.13
9525;BME280;15940;48.734;9.112;2023-06-19T03:59:15;96271.44;;;20.08;64.85
9525;BME280;15940;48.734;9.112;2023-06-19T04:01:42;96280.84;;;19.97;65.74
9525;BME280;15940;48.734;9.112;2023-06-19T04:04:11;96282.28;;;19.98;64.76
9525;BME280;15940;48.734;9.112;2023-06-19T04:06:40;96279.03;;;19.92;67.30
9525;BME280;15940;48.734;9.112;2023-06-19T04:09:50;96285.69;;;19.81;66.83
9525;BME280;15940;48.734;9.112;2023-06-19T04:12:31;96276.75;;;19.65;67.59
9525;BME280;15940;48.734;9.112;2023-06-19T04:14:58;96280.03;;;19.64;68.34
9525;BME280;15940;48.734;9.112;2023-06-19T04:17:28;96285.16;;;19.60;68.94
9525;BME280;15940;48.734;9.112;2023-06-19T04:23:39;96284.63;;;19.46;69.21
9525;BME280;15940;48.734;9.112;2023-06-19T04:26:06;96281.69;;;19.52;68.58
9525;BME280;15940;48.734;9.112;2023-06-19T04:28:34;96286.44;;;19.51;68.54
9525;BME280;15940;48.734;9.112;2023-06-19T04:31:54;96275.66;;;19.53;68.13
9525;BME280;15940;48.734;9.112;2023-06-19T04:34:21;96279.13;;;19.54;68.79
9525;BME280;15940;48.734;9.112;2023-06-19T04:36:48;96269.59;;;19.55;68.24
9525;BME280;15940;48.734;9.112;2023-06-19T04:39:17;96276.94;;;19.60;68.03
9525;BME280;15940;48.734;9.112;2023-06-19T04:41:44;96279.66;;;19.67;67.94
9525;BME280;15940;48.734;9.112;2023-06-19T04:44:14;96273.97;;;19.73;68.34
9525;BME280;15940;48.734;9.112;2023-06-19T04:46:43;96274.69;;;19.74;67.68
9525;BME280;15940;48.734;9.112;2023-06-19T04:49:13;96277.06;;;19.77;67.57
9525;BME280;15940;48.734;9.112;2023-06-19T04:51:43;96280.91;;;19.82;67.23
9525;BME280;15940;48.734;9.112;2023-06-19T04:54:10;96282.34;;;19.90;67.45
9525;BME280;15940;48.734;9.112;2023-06-19T04:56:37;96288.56;;;19.91;66.88
9525;BME280;15940;48.734;9.112;2023-06-19T04:59:04;96280.47;;;20.01;67.27
9525;BME280;15940;48.734;9.112;2023-06-19T05:01:32;96293.63;;;20.10;67.54
9525;BME280;15940;48.734;9.112;2023-06-19T05:03:59;96301.09;;;20.17;67.53
9525;BME280;15940;48.734;9.112;2023-06-19T05:06:29;96292.31;;;20.18;67.12
9525;BME280;15940;48.734;9.112;2023-06-19T05:08:56;96301.47;;;20.13;67.09
9525;BME280;15940;48.734;9.112;2023-06-19T05:11:23;96298.56;;;20.11;67.30
9525;BME280;15940;48.734;9.112;2023-06-19T05:13:50;96295.97;;;20.13;66.80
9525;BME280;15940;48.734;9.112;2023-06-19T05:16:19;96306.59;;;20.17;66.89
9525;BME280;15940;48.734;9.112;2023-06-19T05:18:47;96307.72;;;20.14;66.89
9525;BME280;15940;48.734;9.112;2023-06-19T05:21:15;96300.19;;;20.14;66.87
9525;BME280;15940;48.734;9.112;2023-06-19T05:23:42;96293.63;;;20.10;66.88
9525;BME280;15940;48.734;9.112;2023-06-19T05:26:10;96306.41;;;20.15;66.98
9525;BME280;15940;48.734;9.112;2023-06-19T05:28:37;96307.16;;;20.15;66.87
9525;BME280;15940;48.734;9.112;2023-06-19T05:31:04;96300.34;;;20.16;66.64
9525;BME280;15940;48.734;9.112;2023-06-19T05:33:31;96305.28;;;20.18;67.19
9525;BME280;15940;48.734;9.112;2023-06-19T05:36:03;96316.50;;;20.20;67.38
9525;BME280;15940;48.734;9.112;2023-06-19T05:38:30;96306.34;;;20.30;66.76
9525;BME280;15940;48.734;9.112;2023-06-19T05:40:59;96311.78;;;20.45;66.66
9525;BME280;15940;48.734;9.112;2023-06-19T05:43:35;96314.28;;;20.59;67.20
9525;BME280;15940;48.734;9.112;2023-06-19T05:46:02;96310.88;;;20.75;65.45
9525;BME280;15940;48.734;9.112;2023-06-19T05:48:29;96321.81;;;20.83;65.79
9525;BME280;15940;48.734;9.112;2023-06-19T05:50:56;96321.94;;;20.93;65.46
9525;BME280;15940;48.734;9.112;2023-06-19T05:53:25;96324.75;;;21.10;65.04
9525;BME280;15940;48.734;9.112;2023-06-19T05:55:52;96333.13;;;21.20;64.46
9525;BME280;15940;48.734;9.112;2023-06-19T05:58:21;96337.84;;;21.27;64.15
9525;BME280;15940;48.734;9.112;2023-06-19T06:00:51;96337.13;;;21.26;63.62
9525;BME280;15940;48.734;9.112;2023-06-19T06:03:26;96347.38;;;21.33;64.39
9525;BME280;15940;48.734;9.112;2023-06-19T06:05:53;96347.53;;;21.35;64.19
9525;BME280;15940;48.734;9.112;2023-06-19T06:08:20;96348.75;;;21.42;64.05
9525;BME280;15940;48.734;9.112;2023-06-19T06:10:48;96352.56;;;21.47;64.05
9525;BME280;15940;48.734;9.112;2023-06-19T06:13:15;96343.16;;;21.50;64.38
9525;BME280;15940;48.734;9.112;2023-06-19T06:15:42;96344.22;;;21.54;64.68
9525;BME280;15940;48.734;9.112;2023-06-19T06:18:09;96350.78;;;21.59;63.43
9525;BME280;15940;48.734;9.112;2023-06-19T06:20:36;96348.31;;;21.71;63.47
9525;BME280;15940;48.734;9.112;2023-06-19T06:23:03;96354.94;;;21.85;62.42
9525;BME280;15940;48.734;9.112;2023-06-19T06:25:30;96360.97;;;21.91;62.89
9525;BME280;15940;48.734;9.112;2023-06-19T06:27:59;96367.78;;;22.07;62.00
9525;BME280;15940;48.734;9.112;2023-06-19T06:30:26;96365.44;;;22.21;60.03
9525;BME280;15940;48.734;9.112;2023-06-19T06:32:53;96366.72;;;22.37;59.75
9525;BME280;15940;48.734;9.112;2023-06-19T06:35:29;96379.25;;;22.48;59.13
9525;BME280;15940;48.734;9.112;2023-06-19T06:37:56;96370.31;;;22.57;57.81
9525;BME280;15940;48.734;9.112;2023-06-19T06:40:25;96379.53;;;22.69;57.37
9525;BME280;15940;48.734;9.112;2023-06-19T06:42:55;96379.88;;;22.83;58.26
9525;BME280;15940;48.734;9.112;2023-06-19T06:45:24;96379.75;;;23.08;57.75
9525;BME280;15940;48.734;9.112;2023-06-19T06:47:54;96378.09;;;23.32;57.29
9525;BME280;15940;48.734;9.112;2023-06-19T06:50:23;96387.13;;;23.32;56.51
9525;BME280;15940;48.734;9.112;2023-06-19T06:52:50;96387.78;;;23.14;56.97
9525;BME280;15940;48.734;9.112;2023-06-19T06:55:19;96387.38;;;22.90;56.80
9525;BME280;15940;48.734;9.112;2023-06-19T06:57:46;96395.94;;;22.85;57.29
9525;BME280;15940;48.734;9.112;2023-06-19T07:00:13;96390.06;;;22.80;56.82
9525;BME280;15940;48.734;9.112;2023-06-19T07:02:42;96392.75;;;22.71;57.73
9525;BME280;15940;48.734;9.112;2023-06-19T07:05:10;96401.25;;;22.83;57.62
9525;BME280;15940;48.734;9.112;2023-06-19T07:07:37;96403.25;;;22.99;57.35
9525;BME280;15940;48.734;9.112;2023-06-19T07:10:06;96399.44;;;23.22;56.22
9525;BME280;15940;48.734;9.112;2023-06-19T07:12:33;96404.75;;;23.47;55.89
9525;BME280;15940;48.734;9.112;2023-06-19T07:15:00;96399.38;;;23.49;55.75
9525;BME280;15940;48.734;9.112;2023-06-19T07:17:27;96405.69;;;23.59;55.94
9525;BME280;15940;48.734;9.112;2023-06-19T07:19:55;96401.38;;;23.85;55.01
9525;BME280;15940;48.734;9.112;2023-06-19T07:22:22;96392.50;;;24.25;53.54
9525;BME280;15940;48.734;9.112;2023-06-19T07:24:49;96397.00;;;24.59;53.02
9525;BME280;15940;48.734;9.112;2023-06-19T07:27:16;96388.97;;;24.83;52.23
9525;BME280;15940;48.734;9.112;2023-06-19T07:29:46;96397.78;;;25.10;50.56
9525;BME280;15940;48.734;9.112;2023-06-19T07:32:14;96411.63;;;25.00;50.15
9525;BME280;15940;48.734;9.112;2023-06-19T07:34:41;96412.72;;;24.86;51.28
9525;BME280;15940;48.734;9.112;2023-06-19T07:37:09;96415.72;;;24.99;50.16
9525;BME280;15940;48.734;9.112;2023-06-19T07:39:43;96418.41;;;25.28;49.71
9525;BME280;15940;48.734;9.112;2023-06-19T07:42:12;96414.69;;;25.45;49.23
9525;BME280;15940;48.734;9.112;2023-06-19T07:44:41;96417.75;;;25.49;49.85
9525;BME280;15940;48.734;9.112;2023-06-19T07:47:09;96422.13;;;25.52;49.82
9525;BME280;15940;48.734;9.112;2023-06-19T07:49:37;96416.84;;;25.56;49.84
9525;BME280;15940;48.734;9.112;2023-06-19T07:52:07;96423.09;;;25.57;49.65
9525;BME280;15940;48.734;9.112;2023-06-19T07:54:48;96427.13;;;25.44;50.76
9525;BME280;15940;48.734;9.112;2023-06-19T07:57:15;96429.06;;;25.32;49.99
9525;BME280;15940;48.734;9.112;2023-06-19T07:59:43;96426.09;;;25.09;49.72
9525;BME280;15940;48.734;9.112;2023-06-19T08:02:10;96434.00;;;24.83;50.91
9525;BME280;15940;48.734;9.112;2023-06-19T08:04:38;96430.97;;;24.60;51.41
9525;BME280;15940;48.734;9.112;2023-06-19T08:07:07;96432.16;;;24.37;52.05
9525;BME280;15940;48.734;9.112;2023-06-19T08:09:35;96425.28;;;24.29;52.95
9525;BME280;15940;48.734;9.112;2023-06-19T08:12:03;96430.53;;;24.25;52.91
9525;BME280;15940;48.734;9.112;2023-06-19T08:17:55;96436.03;;;24.05;53.92
9525;BME280;15940;48.734;9.112;2023-06-19T08:20:31;96422.66;;;24.02;53.58
9525;BME280;15940;48.734;9.112;2023-06-19T08:22:59;96426.16;;;24.02;53.70
9525;BME280;15940;48.734;9.112;2023-06-19T08:25:27;96416.84;;;24.07;53.03
9525;BME280;15940;48.734;9.112;2023-06-19T08:27:54;96422.66;;;24.11;53.74
9525;BME280;15940;48.734;9.112;2023-06-19T08:30:21;96414.50;;;24.13;53.36
9525;BME280;15940;48.734;9.112;2023-06-19T08:32:48;96405.63;;;24.34;53.87
9525;BME280;15940;48.734;9.112;2023-06-19T08:35:15;96403.00;;;24.56;53.13
9525;BME280;15940;48.734;9.112;2023-06-19T08:37:43;96408.06;;;24.78;52.54
9525;BME280;15940;48.734;9.112;2023-06-19T08:40:12;96408.44;;;25.14;51.68
9525;BME280;15940;48.734;9.112;2023-06-19T08:42:53;96406.06;;;25.51;50.19
9525;BME280;15940;48.734;9.112;2023-06-19T08:45:21;96402.88;;;25.76;51.45
9525;BME280;15940;48.734;9.112;2023-06-19T08:47:49;96401.66;;;25.88;48.94
9525;BME280;15940;48.734;9.112;2023-06-19T08:50:16;96390.78;;;25.92;49.38
9525;BME280;15940;48.734;9.112;2023-06-19T08:52:46;96393.53;;;26.35;47.37
9525;BME280;15940;48.734;9.112;2023-06-19T08:55:13;96380.59;;;26.61;46.37
9525;BME280;15940;48.734;9.112;2023-06-19T08:57:44;96378.69;;;26.75;46.30
9525;BME280;15940;48.734;9.112;2023-06-19T09:00:25;96384.91;;;27.09;44.71
9525;BME280;15940;48.734;9.112;2023-06-19T09:02:59;96382.09;;;26.86;46.09
9525;BME280;15940;48.734;9.112;2023-06-19T09:05:27;96382.63;;;27.29;44.68
9525;BME280;15940;48.734;9.112;2023-06-19T09:07:56;96378.97;;;27.61;44.48
9525;BME280;15940;48.734;9.112;2023-06-19T09:10:24;96382.59;;;27.87;43.97
9525;BME280;15940;48.734;9.112;2023-06-19T09:13:01;96374.47;;;27.92;42.75
9525;BME280;15940;48.734;9.112;2023-06-19T09:15:36;96383.91;;;28.35;41.80
9525;BME280;15940;48.734;9.112;2023-06-19T09:18:07;96385.78;;;28.70;41.02
9525;BME280;15940;48.734;9.112;2023-06-19T09:20:38;96376.41;;;28.77;39.75
9525;BME280;15940;48.734;9.112;2023-06-19T09:23:07;96375.41;;;28.84;40.53
9525;BME280;15940;48.734;9.112;2023-06-19T09:28:24;96375.66;;;28.00;39.92
9525;BME280;15940;48.734;9.112;2023-06-19T09:30:58;96375.34;;;27.47;42.08
9525;BME280;15940;48.734;9.112;2023-06-19T09:33:28;96380.34;;;27.25;43.37
9525;BME280;15940;48.734;9.112;2023-06-19T09:35:57;96377.91;;;27.08;44.23
9525;BME280;15940;48.734;9.112;2023-06-19T09:38:28;96369.03;;;27.00;45.27
9525;BME280;15940;48.734;9.112;2023-06-19T09:40:57;96371.09;;;26.88;45.00
9525;BME280;15940;48.734;9.112;2023-06-19T09:43:37;96378.91;;;26.68;45.88
9525;BME280;15940;48.734;9.112;2023-06-19T09:46:06;96377.13;;;26.72;45.77
9525;BME280;15940;48.734;9.112;2023-06-19T09:48:35;96373.31;;;27.24;44.99
9525;BME280;15940;48.734;9.112;2023-06-19T09:51:12;96373.66;;;27.66;44.18
9525;BME280;15940;48.734;9.112;2023-06-19T09:53:45;96372.81;;;28.12;44.53
9525;BME280;15940;48.734;9.112;2023-06-19T09:56:15;96369.72;;;28.43;42.72
9525;BME280;15940;48.734;9.112;2023-06-19T09:58:51;96378.13;;;28.70;42.93
9525;BME280;15940;48.734;9.112;2023-06-19T10:01:21;96371.31;;;28.99;42.94
9525;BME280;15940;48.734;9.112;2023-06-19T10:03:50;96381.44;;;28.92;42.37
9525;BME280;15940;48.734;9.112;2023-06-19T10:06:17;96374.63;;;28.95;42.86
9525;BME280;15940;48.734;9.112;2023-06-19T10:08:46;96373.22;;;28.83;43.55
9525;BME280;15940;48.734;9.112;2023-06-19T10:11:14;96375.28;;;28.43;43.54
9525;BME280;15940;48.734;9.112;2023-06-19T10:13:42;96374.09;;;27.97;44.29
9525;BME280;15940;48.734;9.112;2023-06-19T10:16:23;96377.63;;;27.86;44.38
9525;BME280;15940;48.734;9.112;2023-06-19T10:18:52;96369.03;;;27.82;44.64
9525;BME280;15940;48.734;9.112;2023-06-19T10:21:21;96361.16;;;27.90;43.95
9525;BME280;15940;48.734;9.112;2023-06-19T10:23:56;96369.09;;;28.07;44.82
9525;BME280;15940;48.734;9.112;2023-06-19T10:26:32;96370.44;;;28.43;44.84
9525;BME280;15940;48.734;9.112;2023-06-19T10:28:59;96369.91;;;28.47;44.74
9525;BME280;15940;48.734;9.112;2023-06-19T10:31:29;96378.63;;;28.53;44.04
9525;BME280;15940;48.734;9.112;2023-06-19T10:33:56;96365.50;;;28.30;44.11
9525;BME280;15940;48.734;9.112;2023-06-19T10:36:23;96370.59;;;28.34;44.07
9525;BME280;15940;48.734;9.112;2023-06-19T10:38:52;96364.50;;;28.63;42.90
9525;BME280;15940;48.734;9.112;2023-06-19T10:41:22;96357.50;;;29.15;41.78
9525;BME280;15940;48.734;9.112;2023-06-19T10:43:55;96352.69;;;29.56;41.94
9525;BME280;15940;48.734;9.112;2023-06-19T10:46:23;96362.47;;;29.71;41.23
9525;BME280;15940;48.734;9.112;2023-06-19T10:48:53;96357.94;;;29.64;42.39
9525;BME280;15940;48.734;9.112;2023-06-19T10:51:28;96357.41;;;29.40;42.61
9525;BME280;15940;48.734;9.112;2023-06-19T10:53:55;96357.50;;;29.15;43.48
9525;BME280;15940;48.734;9.112;2023-06-19T10:56:24;96358.28;;;28.90;44.64
9525;BME280;15940;48.734;9.112;2023-06-19T10:58:57;96366.41;;;28.72;44.45
9525;BME280;15940;48.734;9.112;2023-06-19T11:01:33;96366.00;;;28.52;45.14
9525;BME280;15940;48.734;9.112;2023-06-19T11:04:05;96362.13;;;28.20;45.25
9525;BME280;15940;48.734;9.112;2023-06-19T11:06:33;96357.72;;;28.03;45.96
9525;BME280;15940;48.734;9.112;2023-06-19T11:09:03;96352.69;;;27.88;46.37
9525;BME280;15940;48.734;9.112;2023-06-19T11:11:39;96366.66;;;27.53;46.94
9525;BME280;15940;48.734;9.112;2023-06-19T11:14:10;96357.13;;;27.68;47.19
9525;BME280;15940;48.734;9.112;2023-06-19T11:16:46;96354.81;;;28.01;47.33
9525;BME280;15940;48.734;9.112;2023-06-19T11:19:17;96354.47;;;28.32;46.02
9525;BME280;15940;48.734;9.112;2023-06-19T11:21:47;96350.50;;;28.74;45.74
9525;BME280;15940;48.734;9.112;2023-06-19T11:24:15;96353.06;;;29.23;42.68
9525;BME280;15940;48.734;9.112;2023-06-19T11:26:46;96348.69;;;28.93;42.95
9525;BME280;15940;48.734;9.112;2023-06-19T11:29:16;96351.78;;;28.99;43.97
9525;BME280;15940;48.734;9.112;2023-06-19T11:31:45;96348.28;;;28.98;43.64
9525;BME280;15940;48.734;9.112;2023-06-19T11:34:20;96350.09;;;29.19;44.80
9525;BME280;15940;48.734;9.112;2023-06-19T11:36:54;96345.72;;;29.44;43.86
9525;BME280;15940;48.734;9.112;2023-06-19T11:39:26;96352.84;;;29.74;43.15
9525;BME280;15940;48.734;9.112;2023-06-19T11:41:54;96345.50;;;29.95;41.80
9525;BME280;15940;48.734;9.112;2023-06-19T11:44:26;96344.09;;;30.23;42.18
9525;BME280;15940;48.734;9.112;2023-06-19T11:46:57;96344.34;;;30.29;41.19
9525;BME280;15940;48.734;9.112;2023-06-19T11:49:26;96346.22;;;29.95;42.21
9525;BME280;15940;48.734;9.112;2023-06-19T11:51:54;96335.09;;;29.54;42.33
9525;BME280;15940;48.734;9.112;2023-06-19T11:54:21;96337.78;;;29.52;42.88
9525;BME280;15940;48.734;9.112;2023-06-19T11:56:48;96340.38;;;29.62;43.18
9525;BME280;15940;48.734;9.112;2023-06-19T11:59:15;96338.28;;;29.62;42.33
9525;BME280;15940;48.734;9.112;2023-06-19T12:01:43;96335.59;;;29.64;43.48
9525;BME280;15940;48.734;9.112;2023-06-19T12:04:10;96333.44;;;29.76;42.27
9525;BME280;15940;48.734;9.112;2023-06-19T12:06:42;96332.78;;;29.78;42.18
9525;BME280;15940;48.734;9.112;2023-06-19T12:09:09;96335.44;;;29.90;42.68
9525;BME280;15940;48.734;9.112;2023-06-19T12:11:37;96323.41;;;30.14;42.73
9525;BME280;15940;48.734;9.112;2023-06-19T12:14:04;96321.50;;;30.49;42.00
9525;BME280;15940;48.734;9.112;2023-06-19T12:16:31;96322.31;;;30.51;42.00
9525;BME280;15940;48.734;9.112;2023-06-19T12:18:58;96316.56;;;30.63;40.98
9525;BME280;15940;48.734;9.112;2023-06-19T12:21:25;96313.88;;;30.65;41.43
9525;BME280;15940;48.734;9.112;2023-06-19T12:23:55;96321.81;;;30.86;40.45
9525;BME280;15940;48.734;9.112;2023-06-19T12:26:24;96314.88;;;30.87;39.49
9525;BME280;15940;48.734;9.112;2023-06-19T12:28:54;96312.97;;;31.08;39.70
9525;BME280;15940;48.734;9.112;2023-06-19T12:31:21;96304.56;;;31.39;39.23
9525;BME280;15940;48.734;9.112;2023-06-19T12:33:50;96306.25;;;31.46;39.72
9525;BME280;15940;48.734;9.112;2023-06-19T12:36:19;96303.88;;;31.57;39.21
9525;BME280;15940;48.734;9.112;2023-06-19T12:38:45;96309.59;;;31.43;39.26
9525;BME280;15940;48.734;9.112;2023-06-19T12:41:15;96308.72;;;31.07;38.87
9525;BME280;15940;48.734;9.112;2023-06-19T12:43:42;96303.88;;;30.30;40.28
9525;BME280;15940;48.734;9.112;2023-06-19T12:46:09;96307.53;;;29.90;41.17
9525;BME280;15940;48.734;9.112;2023-06-19T12:48:37;96301.09;;;29.57;42.24
9525;BME280;15940;48.734;9.112;2023-06-19T12:51:04;96316.28;;;29.27;42.89
9525;BME280;15940;48.734;9.112;2023-06-19T12:53:33;96314.75;;;29.10;42.88
9525;BME280;15940;48.734;9.112;2023-06-19T12:56:00;96313.59;;;29.01;42.80
9525;BME280;15940;48.734;9.112;2023-06-19T12:58:29;96308.69;;;28.88;43.75
9525;BME280;15940;48.734;9.112;2023-06-19T13:01:03;96316.63;;;28.80;44.28
9525;BME280;15940;48.734;9.112;2023-06-19T13:03:30;96309.41;;;28.75;43.79
9525;BME280;15940;48.734;9.112;2023-06-19T13:05:57;96308.69;;;28.74;43.66
9525;BME280;15940;48.734;9.112;2023-06-19T13:08:24;96309.84;;;28.83;44.20
9525;BME280;15940;48.734;9.112;2023-06-19T13:10:51;96300.75;;;28.83;42.60
9525;BME280;15940;48.734;9.112;2023-06-19T13:13:18;96298.66;;;28.69;42.72
9525;BME280;15940;48.734;9.112;2023-06-19T13:15:47;96292.16;;;28.65;43.06
9525;BME280;15940;48.734;9.112;2023-06-19T13:18:14;96292.06;;;28.63;44.37
9525;BME280;15940;48.734;9.112;2023-06-19T13:20:43;96289.06;;;28.86;42.87
9525;BME280;15940;48.734;9.112;2023-06-19T13:23:14;96283.63;;;29.16;41.97
9525;BME280;15940;48.734;9.112;2023-06-19T13:25:41;96284.97;;;29.42;41.27
9525;BME280;15940;48.734;9.112;2023-06-19T13:28:08;96281.25;;;29.51;41.60
9525;BME280;15940;48.734;9.112;2023-06-19T13:30:39;96275.53;;;29.63;40.63